sensor_id;sensor_type;location;lat;lon;timestamp;P1;durP1;ratioP1;P2;durP2;ratioP2
6695;SDS011;3385;48.928;10.330;2023-08-24T00:02:02;0.00;;;0.00;;
6695;SDS011;3385;48.928;10.330;2023-08-24T00:04:29;0.00;;;0.00;;
6695;SDS011;3385;48.928;10.330;2023-08-24T00:06:54;0.00;;;0.00;;
6695;SDS011;3385;48.928;10.330;2023-08-24T00:09:20;0.00;;;0.00;;
6695;SDS011;3385;48.928;10.330;2023-08-24T00:11:46;0.00;;;0.00;;
6695;SDS011;3385;48.928;10.330;2023-08-24T00:14:11;0.00;;;0.00;;
6695;SDS011;3385;48.928;10.330;2023-08-24T00:16:37;0.00;;;0.00;;
6695;SDS011;3385;48.928;10.330;2023-08-24T00:19:03;0.00;;;0.00;;
6695;SDS011;3385;48.928;10.330;2023-08-24T00:21:30;0.00;;;0.00;;
6695;SDS011;3385;48.928;10.330;2023-08-24T00:23:55;0.00;;;0.00;;
6695;SDS011;3385;48.928;10.330;2023-08-24T00:26:21;0.00;;;0.00;;
6695;SDS011;3385;48.928;10.330;2023-08-24T00:28:48;0.00;;;0.00;;
6695;SDS011;3385;48.928;10.330;2023-08-24T00:31:16;0.00;;;0.00;;
6695;SDS011;3385;48.928;10.330;2023-08-24T00:33:42;0.00;;;0.00;;
6695;SDS011;3385;48.928;10.330;2023-08-24T00:36:08;0.00;;;0.00;;
6695;SDS011;3385;48.928;10.330;2023-08-24T00:38:34;0.00;;;0.00;;
6695;SDS011;3385;48.928;10.330;2023-08-24T00:41:00;0.00;;;0.00;;
6695;SDS011;3385;48.928;10.330;2023-08-24T00:43:26;0.00;;;0.00;;
6695;SDS011;3385;48.928;10.330;2023-08-24T00:45:52;0.00;;;0.00;;
6695;SDS011;3385;48.928;10.330;2023-08-24T00:48:21;0.00;;;0.00;;
6695;SDS011;3385;48.928;10.330;2023-08-24T00:50:53;0.00;;;0.00;;
6695;SDS011;3385;48.928;10.330;2023-08-24T00:53:19;0.00;;;0.00;;
6695;SDS011;3385;48.928;10.330;2023-08-24T00:55:46;0.00;;;0.00;;
6695;SDS011;3385;48.928;10.330;2023-08-24T00:58:13;0.00;;;0.00;;
6695;SDS011;3385;48.928;10.330;2023-08-24T01:00:39;0.00;;;0.00;;
6695;SDS011;3385;48.928;10.330;2023-08-24T01:03:05;0.00;;;0.00;;
6695;SDS011;3385;48.928;10.330;2023-08-24T01:05:31;0.00;;;0.00;;
6695;SDS011;3385;48.928;10.330;2023-08-24T01:07:57;0.00;;;0.00;;
6695;SDS011;3385;48.928;10.330;2023-08-24T01:10:24;0.00;;;0.00;;
6695;SDS011;3385;48.928;10.330;2023-08-24T01:13:07;0.00;;;0.00;;
6695;SDS011;3385;48.928;10.330;2023-08-24T01:15:39;0.00;;;0.00;;
6695;SDS011;3385;48.928;10.330;2023-08-24T01:18:11;0.00;;;0.00;;
6695;SDS011;3385;48.928;10.330;2023-08-24T01:20:42;0.00;;;0.00;;
6695;SDS011;3385;48.928;10.330;2023-08-24T01:25:53;0.00;;;0.00;;
6695;SDS011;3385;48.928;10.330;2023-08-24T01:28:26;0.00;;;0.00;;
6695;SDS011;3385;48.928;10.330;2023-08-24T01:30:53;0.00;;;0.00;;
6695;SDS011;3385;48.928;10.330;2023-08-24T01:33:18;0.00;;;0.00;;
6695;SDS011;3385;48.928;10.330;2023-08-24T01:35:44;0.00;;;0.00;;
6695;SDS011;3385;48.928;10.330;2023-08-24T01:38:10;0.00;;;0.00;;
6695;SDS011;3385;48.928;10.330;2023-08-24T01:43:35;0.00;;;0.00;;
6695;SDS011;3385;48.928;10.330;2023-08-24T01:46:05;0.00;;;0.00;;
6695;SDS011;3385;48.928;10.330;2023-08-24T01:48:32;0.00;;;0.00;;
6695;SDS011;3385;48.928;10.330;2023-08-24T01:50:59;0.00;;;0.00;;
6695;SDS011;3385;48.928;10.330;2023-08-24T01:53:27;0.00;;;0.00;;
6695;SDS011;3385;48.928;10.330;2023-08-24T01:55:55;0.00;;;0.00;;
6695;SDS011;3385;48.928;10.330;2023-08-24T01:58:23;0.00;;;0.00;;
6695;SDS011;3385;48.928;10.330;2023-08-24T02:00:48;0.00;;;0.00;;
6695;SDS011;3385;48.928;10.330;2023-08-24T02:03:14;0.00;;;0.00;;
6695;SDS011;3385;48.928;10.330;2023-08-24T02:05:40;0.00;;;0.00;;
6695;SDS011;3385;48.928;10.330;2023-08-24T02:08:05;0.00;;;0.00;;
6695;SDS011;3385;48.928;10.330;2023-08-24T02:10:31;0.00;;;0.00;;
6695;SDS011;3385;48.928;10.330;2023-08-24T02:12:57;0.00;;;0.00;;
6695;SDS011;3385;48.928;10.330;2023-08-24T02:15:23;0.00;;;0.00;;
6695;SDS011;3385;48.928;10.330;2023-08-24T02:17:48;0.00;;;0.00;;
6695;SDS011;3385;48.928;10.330;2023-08-24T02:20:14;0.00;;;0.00;;
6695;SDS011;3385;48.928;10.330;2023-08-24T02:22:40;0.00;;;0.00;;
6695;SDS011;3385;48.928;10.330;2023-08-24T02:25:06;0.00;;;0.00;;
6695;SDS011;3385;48.928;10.330;2023-08-24T02:27:33;0.00;;;0.00;;
6695;SDS011;3385;48.928;10.330;2023-08-24T02:29:59;0.00;;;0.00;;
6695;SDS011;3385;48.928;10.330;2023-08-24T02:32:25;0.00;;;0.00;;
6695;SDS011;3385;48.928;10.330;2023-08-24T02:34:51;0.00;;;0.00;;
6695;SDS011;3385;48.928;10.330;2023-08-24T02:37:17;0.00;;;0.00;;
6695;SDS011;3385;48.928;10.330;2023-08-24T02:39:43;0.00;;;0.00;;
6695;SDS011;3385;48.928;10.330;2023-08-24T02:42:09;0.00;;;0.00;;
6695;SDS011;3385;48.928;10.330;2023-08-24T02:44:34;0.00;;;0.00;;
6695;SDS011;3385;48.928;10.330;2023-08-24T02:47:00;0.00;;;0.00;;
6695;SDS011;3385;48.928;10.330;2023-08-24T02:49:26;0.00;;;0.00;;
6695;SDS011;3385;48.928;10.330;2023-08-24T02:51:54;0.00;;;0.00;;
6695;SDS011;3385;48.928;10.330;2023-08-24T02:54:20;0.00;;;0.00;;
6695;SDS011;3385;48.928;10.330;2023-08-24T02:56:45;0.00;;;0.00;;
6695;SDS011;3385;48.928;10.330;2023-08-24T02:59:11;0.00;;;0.00;;
6695;SDS011;3385;48.928;10.330;2023-08-24T03:01:37;0.00;;;0.00;;
6695;SDS011;3385;48.928;10.330;2023-08-24T03:04:03;0.00;;;0.00;;
6695;SDS011;3385;48.928;10.330;2023-08-24T03:06:30;0.00;;;0.00;;
6695;SDS011;3385;48.928;10.330;2023-08-24T03:08:56;0.00;;;0.00;;
6695;SDS011;3385;48.928;10.330;2023-08-24T03:11:22;0.00;;;0.00;;
6695;SDS011;3385;48.928;10.330;2023-08-24T03:13:48;0.00;;;0.00;;
6695;SDS011;3385;48.928;10.330;2023-08-24T03:16:14;0.00;;;0.00;;
6695;SDS011;3385;48.928;10.330;2023-08-24T03:18:39;0.00;;;0.00;;
6695;SDS011;3385;48.928;10.330;2023-08-24T03:21:05;0.00;;;0.00;;
6695;SDS011;3385;48.928;10.330;2023-08-24T03:23:31;0.00;;;0.00;;
6695;SDS011;3385;48.928;10.330;2023-08-24T03:25:57;0.00;;;0.00;;
6695;SDS011;3385;48.928;10.330;2023-08-24T03:28:23;0.00;;;0.00;;
6695;SDS011;3385;48.928;10.330;2023-08-24T03:30:50;0.00;;;0.00;;
6695;SDS011;3385;48.928;10.330;2023-08-24T03:33:17;0.00;;;0.00;;
6695;SDS011;3385;48.928;10.330;2023-08-24T03:35:44;0.00;;;0.00;;
6695;SDS011;3385;48.928;10.330;2023-08-24T03:38:10;0.00;;;0.00;;
6695;SDS011;3385;48.928;10.330;2023-08-24T03:40:36;0.00;;;0.00;;
6695;SDS011;3385;48.928;10.330;2023-08-24T03:43:02;0.00;;;0.00;;
6695;SDS011;3385;48.928;10.330;2023-08-24T03:45:28;0.00;;;0.00;;
6695;SDS011;3385;48.928;10.330;2023-08-24T03:47:54;0.00;;;0.00;;
6695;SDS011;3385;48.928;10.330;2023-08-24T03:50:20;0.00;;;0.00;;
6695;SDS011;3385;48.928;10.330;2023-08-24T03:52:47;0.00;;;0.00;;
6695;SDS011;3385;48.928;10.330;2023-08-24T03:55:15;0.00;;;0.00;;
6695;SDS011;3385;48.928;10.330;2023-08-24T03:57:41;0.00;;;0.00;;
6695;SDS011;3385;48.928;10.330;2023-08-24T04:00:07;0.00;;;0.00;;
6695;SDS011;3385;48.928;10.330;2023-08-24T04:02:36;0.00;;;0.00;;
6695;SDS011;3385;48.928;10.330;2023-08-24T04:05:03;0.00;;;0.00;;
6695;SDS011;3385;48.928;10.330;2023-08-24T04:07:29;0.00;;;0.00;;
6695;SDS011;3385;48.928;10.330;2023-08-24T04:09:56;0.00;;;0.00;;
6695;SDS011;3385;48.928;10.330;2023-08-24T04:12:22;0.00;;;0.00;;
6695;SDS011;3385;48.928;10.330;2023-08-24T04:14:47;0.00;;;0.00;;
6695;SDS011;3385;48.928;10.330;2023-08-24T04:17:14;0.00;;;0.00;;
6695;SDS011;3385;48.928;10.330;2023-08-24T04:19:39;0.00;;;0.00;;
6695;SDS011;3385;48.928;10.330;2023-08-24T04:22:05;0.00;;;0.00;;
6695;SDS011;3385;48.928;10.330;2023-08-24T04:24:31;0.00;;;0.00;;
6695;SDS011;3385;48.928;10.330;2023-08-24T04:26:56;0.00;;;0.00;;
6695;SDS011;3385;48.928;10.330;2023-08-24T04:29:22;0.00;;;0.00;;
6695;SDS011;3385;48.928;10.330;2023-08-24T04:31:48;0.00;;;0.00;;
6695;SDS011;3385;48.928;10.330;2023-08-24T04:34:13;0.00;;;0.00;;
6695;SDS011;3385;48.928;10.330;2023-08-24T04:36:39;0.00;;;0.00;;
6695;SDS011;3385;48.928;10.330;2023-08-24T04:39:05;0.00;;;0.00;;
6695;SDS011;3385;48.928;10.330;2023-08-24T04:41:30;0.00;;;0.00;;
6695;SDS011;3385;48.928;10.330;2023-08-24T04:43:56;0.00;;;0.00;;
6695;SDS011;3385;48.928;10.330;2023-08-24T04:46:22;0.00;;;0.00;;
6695;SDS011;3385;48.928;10.330;2023-08-24T04:48:47;0.00;;;0.00;;
6695;SDS011;3385;48.928;10.330;2023-08-24T04:51:13;0.00;;;0.00;;
6695;SDS011;3385;48.928;10.330;2023-08-24T04:53:39;0.00;;;0.00;;
6695;SDS011;3385;48.928;10.330;2023-08-24T04:56:04;0.00;;;0.00;;
6695;SDS011;3385;48.928;10.330;2023-08-24T04:58:32;0.00;;;0.00;;
6695;SDS011;3385;48.928;10.330;2023-08-24T05:00:58;0.00;;;0.00;;
6695;SDS011;3385;48.928;10.330;2023-08-24T05:03:24;0.00;;;0.00;;
6695;SDS011;3385;48.928;10.330;2023-08-24T05:05:49;0.00;;;0.00;;
6695;SDS011;3385;48.928;10.330;2023-08-24T05:08:15;0.00;;;0.00;;
6695;SDS011;3385;48.928;10.330;2023-08-24T05:10:41;0.00;;;0.00;;
6695;SDS011;3385;48.928;10.330;2023-08-24T05:13:07;0.00;;;0.00;;
6695;SDS011;3385;48.928;10.330;2023-08-24T05:15:32;0.00;;;0.00;;
6695;SDS011;3385;48.928;10.330;2023-08-24T05:17:58;0.00;;;0.00;;
6695;SDS011;3385;48.928;10.330;2023-08-24T05:20:27;0.00;;;0.00;;
6695;SDS011;3385;48.928;10.330;2023-08-24T05:22:54;0.00;;;0.00;;
6695;SDS011;3385;48.928;10.330;2023-08-24T05:25:20;0.00;;;0.00;;
6695;SDS011;3385;48.928;10.330;2023-08-24T05:27:46;0.00;;;0.00;;
6695;SDS011;3385;48.928;10.330;2023-08-24T05:30:12;0.00;;;0.00;;
6695;SDS011;3385;48.928;10.330;2023-08-24T05:32:38;0.00;;;0.00;;
6695;SDS011;3385;48.928;10.330;2023-08-24T05:35:04;0.00;;;0.00;;
6695;SDS011;3385;48.928;10.330;2023-08-24T05:37:31;0.00;;;0.00;;
6695;SDS011;3385;48.928;10.330;2023-08-24T05:39:57;0.00;;;0.00;;
6695;SDS011;3385;48.928;10.330;2023-08-24T05:42:22;0.00;;;0.00;;
6695;SDS011;3385;48.928;10.330;2023-08-24T05:44:48;0.00;;;0.00;;
6695;SDS011;3385;48.928;10.330;2023-08-24T05:47:14;0.00;;;0.00;;
6695;SDS011;3385;48.928;10.330;2023-08-24T05:49:40;0.00;;;0.00;;
6695;SDS011;3385;48.928;10.330;2023-08-24T05:52:06;0.00;;;0.00;;
6695;SDS011;3385;48.928;10.330;2023-08-24T05:54:31;0.00;;;0.00;;
6695;SDS011;3385;48.928;10.330;2023-08-24T05:56:57;0.00;;;0.00;;
6695;SDS011;3385;48.928;10.330;2023-08-24T05:59:25;0.00;;;0.00;;
6695;SDS011;3385;48.928;10.330;2023-08-24T06:01:51;0.00;;;0.00;;
6695;SDS011;3385;48.928;10.330;2023-08-24T06:04:17;0.00;;;0.00;;
6695;SDS011;3385;48.928;10.330;2023-08-24T06:06:43;0.00;;;0.00;;
6695;SDS011;3385;48.928;10.330;2023-08-24T06:09:09;0.00;;;0.00;;
6695;SDS011;3385;48.928;10.330;2023-08-24T06:11:35;0.00;;;0.00;;
6695;SDS011;3385;48.928;10.330;2023-08-24T06:14:01;0.00;;;0.00;;
6695;SDS011;3385;48.928;10.330;2023-08-24T06:16:29;0.00;;;0.00;;
6695;SDS011;3385;48.928;10.330;2023-08-24T06:18:55;0.00;;;0.00;;
6695;SDS011;3385;48.928;10.330;2023-08-24T06:21:21;0.00;;;0.00;;
6695;SDS011;3385;48.928;10.330;2023-08-24T06:23:47;0.00;;;0.00;;
6695;SDS011;3385;48.928;10.330;2023-08-24T06:26:12;0.00;;;0.00;;
6695;SDS011;3385;48.928;10.330;2023-08-24T06:28:39;0.00;;;0.00;;
6695;SDS011;3385;48.928;10.330;2023-08-24T06:31:05;0.00;;;0.00;;
6695;SDS011;3385;48.928;10.330;2023-08-24T06:33:36;0.00;;;0.00;;
6695;SDS011;3385;48.928;10.330;2023-08-24T06:36:03;0.00;;;0.00;;
6695;SDS011;3385;48.928;10.330;2023-08-24T06:38:33;0.00;;;0.00;;
6695;SDS011;3385;48.928;10.330;2023-08-24T06:40:59;0.00;;;0.00;;
6695;SDS011;3385;48.928;10.330;2023-08-24T06:43:25;0.00;;;0.00;;
6695;SDS011;3385;48.928;10.330;2023-08-24T06:45:52;0.00;;;0.00;;
6695;SDS011;3385;48.928;10.330;2023-08-24T06:48:19;0.00;;;0.00;;
6695;SDS011;3385;48.928;10.330;2023-08-24T06:50:44;0.00;;;0.00;;
6695;SDS011;3385;48.928;10.330;2023-08-24T06:53:10;0.00;;;0.00;;
6695;SDS011;3385;48.928;10.330;2023-08-24T06:55:36;0.00;;;0.00;;
6695;SDS011;3385;48.928;10.330;2023-08-24T06:58:02;0.00;;;0.00;;
6695;SDS011;3385;48.928;10.330;2023-08-24T07:00:32;0.00;;;0.00;;
6695;SDS011;3385;48.928;10.330;2023-08-24T07:02:58;0.00;;;0.00;;
6695;SDS011;3385;48.928;10.330;2023-08-24T07:05:24;0.00;;;0.00;;
6695;SDS011;3385;48.928;10.330;2023-08-24T07:07:50;0.00;;;0.00;;
6695;SDS011;3385;48.928;10.330;2023-08-24T07:10:17;0.00;;;0.00;;
6695;SDS011;3385;48.928;10.330;2023-08-24T07:12:43;0.00;;;0.00;;
6695;SDS011;3385;48.928;10.330;2023-08-24T07:15:10;0.00;;;0.00;;
6695;SDS011;3385;48.928;10.330;2023-08-24T07:17:37;0.00;;;0.00;;
6695;SDS011;3385;48.928;10.330;2023-08-24T07:20:03;0.00;;;0.00;;
6695;SDS011;3385;48.928;10.330;2023-08-24T07:22:33;0.00;;;0.00;;
6695;SDS011;3385;48.928;10.330;2023-08-24T07:25:00;0.00;;;0.00;;
6695;SDS011;3385;48.928;10.330;2023-08-24T07:27:28;0.00;;;0.00;;
6695;SDS011;3385;48.928;10.330;2023-08-24T07:29:54;0.00;;;0.00;;
6695;SDS011;3385;48.928;10.330;2023-08-24T07:32:20;0.00;;;0.00;;
6695;SDS011;3385;48.928;10.330;2023-08-24T07:34:45;0.00;;;0.00;;
6695;SDS011;3385;48.928;10.330;2023-08-24T07:37:11;0.00;;;0.00;;
6695;SDS011;3385;48.928;10.330;2023-08-24T07:39:37;0.00;;;0.00;;
6695;SDS011;3385;48.928;10.330;2023-08-24T07:42:04;0.00;;;0.00;;
6695;SDS011;3385;48.928;10.330;2023-08-24T07:44:29;0.00;;;0.00;;
6695;SDS011;3385;48.928;10.330;2023-08-24T07:46:55;0.00;;;0.00;;
6695;SDS011;3385;48.928;10.330;2023-08-24T07:49:21;0.00;;;0.00;;
6695;SDS011;3385;48.928;10.330;2023-08-24T07:51:47;0.00;;;0.00;;
6695;SDS011;3385;48.928;10.330;2023-08-24T07:54:12;0.00;;;0.00;;
6695;SDS011;3385;48.928;10.330;2023-08-24T07:56:38;0.00;;;0.00;;
6695;SDS011;3385;48.928;10.330;2023-08-24T07:59:04;0.00;;;0.00;;
6695;SDS011;3385;48.928;10.330;2023-08-24T08:01:29;0.00;;;0.00;;
6695;SDS011;3385;48.928;10.330;2023-08-24T08:03:55;0.00;;;0.00;;
6695;SDS011;3385;48.928;10.330;2023-08-24T08:06:21;0.00;;;0.00;;
6695;SDS011;3385;48.928;10.330;2023-08-24T08:08:49;0.00;;;0.00;;
6695;SDS011;3385;48.928;10.330;2023-08-24T08:11:16;0.00;;;0.00;;
6695;SDS011;3385;48.928;10.330;2023-08-24T08:13:42;0.00;;;0.00;;
6695;SDS011;3385;48.928;10.330;2023-08-24T08:16:08;0.00;;;0.00;;
6695;SDS011;3385;48.928;10.330;2023-08-24T08:18:35;0.00;;;0.00;;
6695;SDS011;3385;48.928;10.330;2023-08-24T08:21:01;0.00;;;0.00;;
6695;SDS011;3385;48.928;10.330;2023-08-24T08:23:34;0.00;;;0.00;;
6695;SDS011;3385;48.928;10.330;2023-08-24T08:26:00;0.00;;;0.00;;
6695;SDS011;3385;48.928;10.330;2023-08-24T08:28:25;0.00;;;0.00;;
6695;SDS011;3385;48.928;10.330;2023-08-24T08:30:51;0.00;;;0.00;;
6695;SDS011;3385;48.928;10.330;2023-08-24T08:33:17;0.00;;;0.00;;
6695;SDS011;3385;48.928;10.330;2023-08-24T08:35:44;0.00;;;0.00;;
6695;SDS011;3385;48.928;10.330;2023-08-24T08:38:10;0.00;;;0.00;;
6695;SDS011;3385;48.928;10.330;2023-08-24T08:40:38;0.00;;;0.00;;
6695;SDS011;3385;48.928;10.330;2023-08-24T08:43:06;0.00;;;0.00;;
6695;SDS011;3385;48.928;10.330;2023-08-24T08:45:32;0.00;;;0.00;;
6695;SDS011;3385;48.928;10.330;2023-08-24T08:47:59;0.00;;;0.00;;
6695;SDS011;3385;48.928;10.330;2023-08-24T08:50:26;0.00;;;0.00;;
6695;SDS011;3385;48.928;10.330;2023-08-24T08:52:52;0.00;;;0.00;;
6695;SDS011;3385;48.928;10.330;2023-08-24T08:55:18;0.00;;;0.00;;
6695;SDS011;3385;48.928;10.330;2023-08-24T08:57:48;0.00;;;0.00;;
6695;SDS011;3385;48.928;10.330;2023-08-24T09:00:17;0.00;;;0.00;;
6695;SDS011;3385;48.928;10.330;2023-08-24T09:02:44;0.00;;;0.00;;
6695;SDS011;3385;48.928;10.330;2023-08-24T09:05:11;0.00;;;0.00;;
6695;SDS011;3385;48.928;10.330;2023-08-24T09:07:40;0.00;;;0.00;;
6695;SDS011;3385;48.928;10.330;2023-08-24T09:10:07;0.00;;;0.00;;
6695;SDS011;3385;48.928;10.330;2023-08-24T09:12:33;0.00;;;0.00;;
6695;SDS011;3385;48.928;10.330;2023-08-24T09:14:59;0.00;;;0.00;;
6695;SDS011;3385;48.928;10.330;2023-08-24T09:17:27;0.00;;;0.00;;
6695;SDS011;3385;48.928;10.330;2023-08-24T09:19:57;0.00;;;0.00;;
6695;SDS011;3385;48.928;10.330;2023-08-24T09:22:23;0.00;;;0.00;;
6695;SDS011;3385;48.928;10.330;2023-08-24T09:24:49;0.00;;;0.00;;
6695;SDS011;3385;48.928;10.330;2023-08-24T09:27:19;0.00;;;0.00;;
6695;SDS011;3385;48.928;10.330;2023-08-24T09:29:52;0.00;;;0.00;;
6695;SDS011;3385;48.928;10.330;2023-08-24T09:32:21;0.00;;;0.00;;
6695;SDS011;3385;48.928;10.330;2023-08-24T09:34:54;0.00;;;0.00;;
6695;SDS011;3385;48.928;10.330;2023-08-24T09:37:20;0.00;;;0.00;;
6695;SDS011;3385;48.928;10.330;2023-08-24T09:39:46;0.00;;;0.00;;
6695;SDS011;3385;48.928;10.330;2023-08-24T09:42:13;0.00;;;0.00;;
6695;SDS011;3385;48.928;10.330;2023-08-24T09:44:45;0.00;;;0.00;;
6695;SDS011;3385;48.928;10.330;2023-08-24T09:47:11;0.00;;;0.00;;
6695;SDS011;3385;48.928;10.330;2023-08-24T09:49:37;0.00;;;0.00;;
6695;SDS011;3385;48.928;10.330;2023-08-24T09:52:06;0.10;;;0.10;;
6695;SDS011;3385;48.928;10.330;2023-08-24T09:54:35;0.00;;;0.00;;
6695;SDS011;3385;48.928;10.330;2023-08-24T09:57:04;0.00;;;0.00;;
6695;SDS011;3385;48.928;10.330;2023-08-24T09:59:34;0.00;;;0.00;;
6695;SDS011;3385;48.928;10.330;2023-08-24T10:02:02;0.00;;;0.00;;
6695;SDS011;3385;48.928;10.330;2023-08-24T10:04:28;0.00;;;0.00;;
6695;SDS011;3385;48.928;10.330;2023-08-24T10:07:03;0.00;;;0.00;;
6695;SDS011;3385;48.928;10.330;2023-08-24T10:09:35;0.00;;;0.00;;
6695;SDS011;3385;48.928;10.330;2023-08-24T10:12:18;0.00;;;0.00;;
6695;SDS011;3385;48.928;10.330;2023-08-24T10:14:52;0.00;;;0.00;;
6695;SDS011;3385;48.928;10.330;2023-08-24T10:17:23;0.00;;;0.00;;
6695;SDS011;3385;48.928;10.330;2023-08-24T10:19:51;0.00;;;0.00;;
6695;SDS011;3385;48.928;10.330;2023-08-24T10:22:18;0.10;;;0.10;;
6695;SDS011;3385;48.928;10.330;2023-08-24T10:24:45;0.10;;;0.10;;
6695;SDS011;3385;48.928;10.330;2023-08-24T10:27:16;0.00;;;0.00;;
6695;SDS011;3385;48.928;10.330;2023-08-24T10:29:43;0.00;;;0.00;;
6695;SDS011;3385;48.928;10.330;2023-08-24T10:32:08;0.00;;;0.00;;
6695;SDS011;3385;48.928;10.330;2023-08-24T10:34:34;0.00;;;0.00;;
6695;SDS011;3385;48.928;10.330;2023-08-24T10:37:10;0.05;;;0.05;;
6695;SDS011;3385;48.928;10.330;2023-08-24T10:39:37;0.00;;;0.00;;
6695;SDS011;3385;48.928;10.330;2023-08-24T10:42:10;0.00;;;0.00;;
6695;SDS011;3385;48.928;10.330;2023-08-24T10:44:36;0.00;;;0.00;;
6695;SDS011;3385;48.928;10.330;2023-08-24T10:47:07;0.10;;;0.10;;
6695;SDS011;3385;48.928;10.330;2023-08-24T10:49:41;0.10;;;0.10;;
6695;SDS011;3385;48.928;10.330;2023-08-24T10:52:16;0.10;;;0.10;;
6695;SDS011;3385;48.928;10.330;2023-08-24T10:54:53;0.10;;;0.10;;
6695;SDS011;3385;48.928;10.330;2023-08-24T10:59:57;0.10;;;0.10;;
6695;SDS011;3385;48.928;10.330;2023-08-24T11:02:47;0.10;;;0.10;;
6695;SDS011;3385;48.928;10.330;2023-08-24T11:05:23;0.00;;;0.00;;
6695;SDS011;3385;48.928;10.330;2023-08-24T11:08:02;0.10;;;0.10;;
6695;SDS011;3385;48.928;10.330;2023-08-24T11:13:07;0.10;;;0.10;;
6695;SDS011;3385;48.928;10.330;2023-08-24T11:15:40;0.10;;;0.10;;
6695;SDS011;3385;48.928;10.330;2023-08-24T11:18:21;0.10;;;0.10;;
6695;SDS011;3385;48.928;10.330;2023-08-24T11:20:51;0.10;;;0.10;;
6695;SDS011;3385;48.928;10.330;2023-08-24T11:23:20;0.08;;;0.08;;
6695;SDS011;3385;48.928;10.330;2023-08-24T11:25:48;0.10;;;0.10;;
6695;SDS011;3385;48.928;10.330;2023-08-24T11:28:20;0.10;;;0.10;;
6695;SDS011;3385;48.928;10.330;2023-08-24T11:30:46;0.10;;;0.10;;
6695;SDS011;3385;48.928;10.330;2023-08-24T11:33:12;0.10;;;0.10;;
6695;SDS011;3385;48.928;10.330;2023-08-24T11:35:43;0.10;;;0.10;;
6695;SDS011;3385;48.928;10.330;2023-08-24T11:38:10;0.10;;;0.10;;
6695;SDS011;3385;48.928;10.330;2023-08-24T11:40:36;0.10;;;0.10;;
6695;SDS011;3385;48.928;10.330;2023-08-24T11:43:03;0.10;;;0.10;;
6695;SDS011;3385;48.928;10.330;2023-08-24T11:45:33;0.10;;;0.10;;
6695;SDS011;3385;48.928;10.330;2023-08-24T11:48:01;0.10;;;0.10;;
6695;SDS011;3385;48.928;10.330;2023-08-24T11:50:29;0.10;;;0.10;;
6695;SDS011;3385;48.928;10.330;2023-08-24T11:52:56;0.10;;;0.10;;
6695;SDS011;3385;48.928;10.330;2023-08-24T11:55:22;0.10;;;0.10;;
6695;SDS011;3385;48.928;10.330;2023-08-24T11:57:49;0.10;;;0.10;;
6695;SDS011;3385;48.928;10.330;2023-08-24T12:00:15;0.10;;;0.10;;
6695;SDS011;3385;48.928;10.330;2023-08-24T12:02:42;0.10;;;0.10;;
6695;SDS011;3385;48.928;10.330;2023-08-24T12:05:08;0.10;;;0.10;;
6695;SDS011;3385;48.928;10.330;2023-08-24T12:07:45;0.10;;;0.10;;
6695;SDS011;3385;48.928;10.330;2023-08-24T12:10:12;0.10;;;0.10;;
6695;SDS011;3385;48.928;10.330;2023-08-24T12:12:38;0.10;;;0.10;;
6695;SDS011;3385;48.928;10.330;2023-08-24T12:15:03;0.10;;;0.10;;
6695;SDS011;3385;48.928;10.330;2023-08-24T12:17:30;0.10;;;0.10;;
6695;SDS011;3385;48.928;10.330;2023-08-24T12:20:07;0.10;;;0.10;;
6695;SDS011;3385;48.928;10.330;2023-08-24T12:22:37;0.10;;;0.10;;
6695;SDS011;3385;48.928;10.330;2023-08-24T12:25:03;0.10;;;0.10;;
6695;SDS011;3385;48.928;10.330;2023-08-24T12:27:30;0.10;;;0.10;;
6695;SDS011;3385;48.928;10.330;2023-08-24T12:30:00;0.10;;;0.10;;
6695;SDS011;3385;48.928;10.330;2023-08-24T12:32:45;0.10;;;0.10;;
6695;SDS011;3385;48.928;10.330;2023-08-24T12:35:14;0.20;;;0.20;;
6695;SDS011;3385;48.928;10.330;2023-08-24T12:37:40;0.10;;;0.10;;
6695;SDS011;3385;48.928;10.330;2023-08-24T12:40:06;0.10;;;0.10;;
6695;SDS011;3385;48.928;10.330;2023-08-24T12:42:33;0.10;;;0.10;;
6695;SDS011;3385;48.928;10.330;2023-08-24T12:44:59;0.20;;;0.20;;
6695;SDS011;3385;48.928;10.330;2023-08-24T12:47:24;0.20;;;0.20;;
6695;SDS011;3385;48.928;10.330;2023-08-24T12:49:51;0.20;;;0.20;;
6695;SDS011;3385;48.928;10.330;2023-08-24T12:52:17;0.20;;;0.20;;
6695;SDS011;3385;48.928;10.330;2023-08-24T12:54:43;0.20;;;0.20;;
6695;SDS011;3385;48.928;10.330;2023-08-24T12:57:09;0.20;;;0.20;;
6695;SDS011;3385;48.928;10.330;2023-08-24T12:59:35;0.20;;;0.20;;
6695;SDS011;3385;48.928;10.330;2023-08-24T13:02:00;0.28;;;0.28;;
6695;SDS011;3385;48.928;10.330;2023-08-24T13:04:26;0.20;;;0.20;;
6695;SDS011;3385;48.928;10.330;2023-08-24T13:06:54;0.30;;;0.30;;
6695;SDS011;3385;48.928;10.330;2023-08-24T13:09:20;0.25;;;0.25;;
6695;SDS011;3385;48.928;10.330;2023-08-24T13:11:48;0.20;;;0.20;;
6695;SDS011;3385;48.928;10.330;2023-08-24T13:14:14;0.20;;;0.20;;
6695;SDS011;3385;48.928;10.330;2023-08-24T13:16:40;0.30;;;0.30;;
6695;SDS011;3385;48.928;10.330;2023-08-24T13:19:05;0.30;;;0.30;;
6695;SDS011;3385;48.928;10.330;2023-08-24T13:21:32;0.20;;;0.20;;
6695;SDS011;3385;48.928;10.330;2023-08-24T13:23:58;0.30;;;0.30;;
6695;SDS011;3385;48.928;10.330;2023-08-24T13:26:23;0.30;;;0.30;;
6695;SDS011;3385;48.928;10.330;2023-08-24T13:28:49;0.30;;;0.30;;
6695;SDS011;3385;48.928;10.330;2023-08-24T13:31:16;0.20;;;0.20;;
6695;SDS011;3385;48.928;10.330;2023-08-24T13:33:42;0.30;;;0.30;;
6695;SDS011;3385;48.928;10.330;2023-08-24T13:36:08;0.30;;;0.30;;
6695;SDS011;3385;48.928;10.330;2023-08-24T13:38:33;0.30;;;0.30;;
6695;SDS011;3385;48.928;10.330;2023-08-24T13:40:59;0.20;;;0.20;;
6695;SDS011;3385;48.928;10.330;2023-08-24T13:43:25;0.20;;;0.20;;
6695;SDS011;3385;48.928;10.330;2023-08-24T13:45:51;0.20;;;0.20;;
6695;SDS011;3385;48.928;10.330;2023-08-24T13:48:16;0.20;;;0.20;;
6695;SDS011;3385;48.928;10.330;2023-08-24T13:50:42;0.20;;;0.20;;
6695;SDS011;3385;48.928;10.330;2023-08-24T13:53:21;0.10;;;0.10;;
6695;SDS011;3385;48.928;10.330;2023-08-24T13:55:47;0.10;;;0.10;;
6695;SDS011;3385;48.928;10.330;2023-08-24T13:58:13;0.10;;;0.10;;
6695;SDS011;3385;48.928;10.330;2023-08-24T14:00:39;0.20;;;0.20;;
6695;SDS011;3385;48.928;10.330;2023-08-24T14:03:04;0.10;;;0.10;;
6695;SDS011;3385;48.928;10.330;2023-08-24T14:05:30;0.10;;;0.10;;
6695;SDS011;3385;48.928;10.330;2023-08-24T14:07:56;0.20;;;0.20;;
6695;SDS011;3385;48.928;10.330;2023-08-24T14:10:22;0.10;;;0.10;;
6695;SDS011;3385;48.928;10.330;2023-08-24T14:12:47;0.10;;;0.10;;
6695;SDS011;3385;48.928;10.330;2023-08-24T14:15:13;0.20;;;0.20;;
6695;SDS011;3385;48.928;10.330;2023-08-24T14:17:39;0.10;;;0.10;;
6695;SDS011;3385;48.928;10.330;2023-08-24T14:20:05;0.20;;;0.20;;
6695;SDS011;3385;48.928;10.330;2023-08-24T14:22:31;0.17;;;0.17;;
6695;SDS011;3385;48.928;10.330;2023-08-24T14:24:57;0.20;;;0.20;;
6695;SDS011;3385;48.928;10.330;2023-08-24T14:27:23;0.20;;;0.20;;
6695;SDS011;3385;48.928;10.330;2023-08-24T14:29:49;0.20;;;0.20;;
6695;SDS011;3385;48.928;10.330;2023-08-24T14:32:14;0.20;;;0.20;;
6695;SDS011;3385;48.928;10.330;2023-08-24T14:34:40;0.20;;;0.20;;
6695;SDS011;3385;48.928;10.330;2023-08-24T14:37:06;0.20;;;0.20;;
6695;SDS011;3385;48.928;10.330;2023-08-24T14:39:32;0.17;;;0.17;;
6695;SDS011;3385;48.928;10.330;2023-08-24T14:41:58;0.20;;;0.20;;
6695;SDS011;3385;48.928;10.330;2023-08-24T14:44:23;0.20;;;0.20;;
6695;SDS011;3385;48.928;10.330;2023-08-24T14:46:50;0.20;;;0.20;;
6695;SDS011;3385;48.928;10.330;2023-08-24T14:49:15;0.10;;;0.10;;
6695;SDS011;3385;48.928;10.330;2023-08-24T14:51:45;0.10;;;0.10;;
6695;SDS011;3385;48.928;10.330;2023-08-24T14:54:12;0.10;;;0.10;;
6695;SDS011;3385;48.928;10.330;2023-08-24T14:56:41;0.10;;;0.10;;
6695;SDS011;3385;48.928;10.330;2023-08-24T14:59:07;0.10;;;0.10;;
6695;SDS011;3385;48.928;10.330;2023-08-24T15:01:32;0.10;;;0.10;;
6695;SDS011;3385;48.928;10.330;2023-08-24T15:03:58;0.10;;;0.10;;
6695;SDS011;3385;48.928;10.330;2023-08-24T15:06:24;0.10;;;0.10;;
6695;SDS011;3385;48.928;10.330;2023-08-24T15:08:49;0.10;;;0.10;;
6695;SDS011;3385;48.928;10.330;2023-08-24T15:11:15;0.10;;;0.10;;